sensor_id;sensor_type;location;lat;lon;timestamp;P1;durP1;ratioP1;P2;durP2;ratioP2
22441;SDS011;11388;54.456;9.752;2022-07-23T00:01:01;3.22;;;0.90;;
22441;SDS011;11388;54.456;9.752;2022-07-23T00:03:27;4.55;;;0.80;;
22441;SDS011;11388;54.456;9.752;2022-07-23T00:05:53;4.85;;;1.05;;
22441;SDS011;11388;54.456;9.752;2022-07-23T00:08:19;6.60;;;0.90;;
22441;SDS011;11388;54.456;9.752;2022-07-23T00:10:44;5.03;;;1.10;;
22441;SDS011;11388;54.456;9.752;2022-07-23T00:13:10;6.10;;;1.00;;
22441;SDS011;11388;54.456;9.752;2022-07-23T00:15:37;4.00;;;0.90;;
22441;SDS011;11388;54.456;9.752;2022-07-23T00:18:03;5.13;;;1.30;;
22441;SDS011;11388;54.456;9.752;2022-07-23T00:20:28;3.47;;;0.95;;
22441;SDS011;11388;54.456;9.752;2022-07-23T00:22:54;3.70;;;1.00;;
22441;SDS011;11388;54.456;9.752;2022-07-23T00:25:21;6.68;;;1.05;;
22441;SDS011;11388;54.456;9.752;2022-07-23T00:27:47;4.75;;;1.00;;
22441;SDS011;11388;54.456;9.752;2022-07-23T00:30:13;3.20;;;0.80;;
22441;SDS011;11388;54.456;9.752;2022-07-23T00:35:55;6.18;;;0.98;;
22441;SDS011;11388;54.456;9.752;2022-07-23T00:38:21;3.63;;;1.00;;
22441;SDS011;11388;54.456;9.752;2022-07-23T00:40:47;2.92;;;1.05;;
22441;SDS011;11388;54.456;9.752;2022-07-23T00:43:12;3.78;;;1.02;;
22441;SDS011;11388;54.456;9.752;2022-07-23T00:45:38;3.90;;;0.93;;
22441;SDS011;11388;54.456;9.752;2022-07-23T00:48:05;3.95;;;1.00;;
22441;SDS011;11388;54.456;9.752;2022-07-23T00:50:31;4.80;;;1.02;;
22441;SDS011;11388;54.456;9.752;2022-07-23T00:52:56;4.28;;;0.90;;
22441;SDS011;11388;54.456;9.752;2022-07-23T00:55:22;3.47;;;0.85;;
22441;SDS011;11388;54.456;9.752;2022-07-23T00:57:48;3.15;;;1.00;;
22441;SDS011;11388;54.456;9.752;2022-07-23T01:00:15;5.85;;;1.10;;
22441;SDS011;11388;54.456;9.752;2022-07-23T01:02:41;4.05;;;1.13;;
22441;SDS011;11388;54.456;9.752;2022-07-23T01:05:07;4.75;;;1.10;;
22441;SDS011;11388;54.456;9.752;2022-07-23T01:07:34;5.60;;;1.00;;
22441;SDS011;11388;54.456;9.752;2022-07-23T01:10:00;4.30;;;1.08;;
22441;SDS011;11388;54.456;9.752;2022-07-23T01:12:26;5.70;;;1.30;;
22441;SDS011;11388;54.456;9.752;2022-07-23T01:14:58;6.18;;;1.30;;
22441;SDS011;11388;54.456;9.752;2022-07-23T01:17:25;7.07;;;1.73;;
22441;SDS011;11388;54.456;9.752;2022-07-23T01:19:51;7.03;;;1.42;;
22441;SDS011;11388;54.456;9.752;2022-07-23T01:22:18;5.22;;;1.20;;
22441;SDS011;11388;54.456;9.752;2022-07-23T01:24:45;5.47;;;1.30;;
22441;SDS011;11388;54.456;9.752;2022-07-23T01:27:11;5.57;;;1.20;;
22441;SDS011;11388;54.456;9.752;2022-07-23T01:29:37;6.18;;;1.42;;
22441;SDS011;11388;54.456;9.752;2022-07-23T01:32:03;6.20;;;1.65;;
22441;SDS011;11388;54.456;9.752;2022-07-23T01:34:30;4.80;;;1.17;;
22441;SDS011;11388;54.456;9.752;2022-07-23T01:36:56;5.88;;;1.30;;
22441;SDS011;11388;54.456;9.752;2022-07-23T01:39:21;8.30;;;1.70;;
22441;SDS011;11388;54.456;9.752;2022-07-23T01:41:47;5.68;;;1.20;;
22441;SDS011;11388;54.456;9.752;2022-07-23T01:44:13;7.57;;;1.48;;
22441;SDS011;11388;54.456;9.752;2022-07-23T01:46:38;5.63;;;1.45;;
22441;SDS011;11388;54.456;9.752;2022-07-23T01:49:04;5.65;;;1.20;;
22441;SDS011;11388;54.456;9.752;2022-07-23T01:51:30;6.05;;;1.20;;
22441;SDS011;11388;54.456;9.752;2022-07-23T01:53:56;5.72;;;1.23;;
22441;SDS011;11388;54.456;9.752;2022-07-23T01:56:21;3.72;;;1.13;;
22441;SDS011;11388;54.456;9.752;2022-07-23T01:58:48;6.85;;;1.60;;
22441;SDS011;11388;54.456;9.752;2022-07-23T02:01:13;5.18;;;1.40;;
22441;SDS011;11388;54.456;9.752;2022-07-23T02:03:39;5.53;;;1.10;;
22441;SDS011;11388;54.456;9.752;2022-07-23T02:06:05;5.25;;;1.20;;
22441;SDS011;11388;54.456;9.752;2022-07-23T02:08:31;3.65;;;0.93;;
22441;SDS011;11388;54.456;9.752;2022-07-23T02:10:56;4.03;;;1.17;;
22441;SDS011;11388;54.456;9.752;2022-07-23T02:13:22;8.18;;;1.48;;
22441;SDS011;11388;54.456;9.752;2022-07-23T02:15:48;6.28;;;1.40;;
22441;SDS011;11388;54.456;9.752;2022-07-23T02:18:13;6.15;;;1.40;;
22441;SDS011;11388;54.456;9.752;2022-07-23T02:20:39;4.88;;;1.20;;
22441;SDS011;11388;54.456;9.752;2022-07-23T02:23:05;4.95;;;1.38;;
22441;SDS011;11388;54.456;9.752;2022-07-23T02:25:31;6.55;;;1.40;;
22441;SDS011;11388;54.456;9.752;2022-07-23T02:27:58;5.05;;;1.20;;
22441;SDS011;11388;54.456;9.752;2022-07-23T02:30:24;3.65;;;1.00;;
22441;SDS011;11388;54.456;9.752;2022-07-23T02:35:41;8.60;;;1.40;;
22441;SDS011;11388;54.456;9.752;2022-07-23T02:38:07;7.25;;;1.52;;
22441;SDS011;11388;54.456;9.752;2022-07-23T02:40:33;6.25;;;1.15;;
22441;SDS011;11388;54.456;9.752;2022-07-23T02:42:58;4.82;;;1.30;;
22441;SDS011;11388;54.456;9.752;2022-07-23T02:45:24;4.57;;;1.30;;
22441;SDS011;11388;54.456;9.752;2022-07-23T02:47:50;5.40;;;1.23;;
22441;SDS011;11388;54.456;9.752;2022-07-23T02:50:15;6.50;;;1.33;;
22441;SDS011;11388;54.456;9.752;2022-07-23T02:52:41;3.38;;;1.10;;
22441;SDS011;11388;54.456;9.752;2022-07-23T02:55:07;5.00;;;1.42;;
22441;SDS011;11388;54.456;9.752;2022-07-23T02:57:33;6.63;;;1.38;;
22441;SDS011;11388;54.456;9.752;2022-07-23T02:59:59;4.63;;;1.05;;
22441;SDS011;11388;54.456;9.752;2022-07-23T03:02:24;8.65;;;1.45;;
22441;SDS011;11388;54.456;9.752;2022-07-23T03:04:50;6.40;;;1.30;;
22441;SDS011;11388;54.456;9.752;2022-07-23T03:07:16;4.68;;;1.10;;
22441;SDS011;11388;54.456;9.752;2022-07-23T03:09:42;5.85;;;1.38;;
22441;SDS011;11388;54.456;9.752;2022-07-23T03:12:08;5.28;;;1.40;;
22441;SDS011;11388;54.456;9.752;2022-07-23T03:14:34;5.05;;;1.50;;
22441;SDS011;11388;54.456;9.752;2022-07-23T03:16:59;4.97;;;1.15;;
22441;SDS011;11388;54.456;9.752;2022-07-23T03:19:25;5.93;;;1.40;;
22441;SDS011;11388;54.456;9.752;2022-07-23T03:21:51;6.32;;;1.42;;
22441;SDS011;11388;54.456;9.752;2022-07-23T03:24:17;7.18;;;1.60;;
22441;SDS011;11388;54.456;9.752;2022-07-23T03:26:43;5.50;;;1.63;;
22441;SDS011;11388;54.456;9.752;2022-07-23T03:29:09;7.55;;;1.52;;
22441;SDS011;11388;54.456;9.752;2022-07-23T03:31:35;7.18;;;1.55;;
22441;SDS011;11388;54.456;9.752;2022-07-23T03:34:01;5.47;;;1.40;;
22441;SDS011;11388;54.456;9.752;2022-07-23T03:36:27;8.52;;;1.65;;
22441;SDS011;11388;54.456;9.752;2022-07-23T03:38:53;5.25;;;1.65;;
22441;SDS011;11388;54.456;9.752;2022-07-23T03:41:19;6.57;;;1.48;;
22441;SDS011;11388;54.456;9.752;2022-07-23T03:43:45;6.40;;;1.40;;
22441;SDS011;11388;54.456;9.752;2022-07-23T03:46:12;5.95;;;1.60;;
22441;SDS011;11388;54.456;9.752;2022-07-23T03:48:38;6.22;;;1.75;;
22441;SDS011;11388;54.456;9.752;2022-07-23T03:51:04;7.50;;;1.65;;
22441;SDS011;11388;54.456;9.752;2022-07-23T03:53:30;5.07;;;1.42;;
22441;SDS011;11388;54.456;9.752;2022-07-23T03:55:55;7.70;;;1.83;;
22441;SDS011;11388;54.456;9.752;2022-07-23T03:58:21;7.70;;;2.05;;
22441;SDS011;11388;54.456;9.752;2022-07-23T04:00:47;8.15;;;1.70;;
22441;SDS011;11388;54.456;9.752;2022-07-23T04:03:12;5.82;;;1.42;;
22441;SDS011;11388;54.456;9.752;2022-07-23T04:05:38;5.40;;;1.42;;
22441;SDS011;11388;54.456;9.752;2022-07-23T04:08:04;6.47;;;1.60;;
22441;SDS011;11388;54.456;9.752;2022-07-23T04:10:29;6.70;;;1.73;;
22441;SDS011;11388;54.456;9.752;2022-07-23T04:12:55;8.05;;;1.70;;
22441;SDS011;11388;54.456;9.752;2022-07-23T04:15:21;7.75;;;1.73;;
22441;SDS011;11388;54.456;9.752;2022-07-23T04:17:46;6.93;;;1.55;;
22441;SDS011;11388;54.456;9.752;2022-07-23T04:20:12;6.45;;;1.63;;
22441;SDS011;11388;54.456;9.752;2022-07-23T04:22:38;5.55;;;1.42;;
22441;SDS011;11388;54.456;9.752;2022-07-23T04:25:04;5.25;;;1.50;;
22441;SDS011;11388;54.456;9.752;2022-07-23T04:27:30;8.38;;;1.75;;
22441;SDS011;11388;54.456;9.752;2022-07-23T04:29:58;4.47;;;1.58;;
22441;SDS011;11388;54.456;9.752;2022-07-23T04:32:24;5.00;;;1.30;;
22441;SDS011;11388;54.456;9.752;2022-07-23T04:34:49;5.22;;;1.50;;
22441;SDS011;11388;54.456;9.752;2022-07-23T04:37:15;7.60;;;1.50;;
22441;SDS011;11388;54.456;9.752;2022-07-23T04:39:41;6.50;;;1.45;;
22441;SDS011;11388;54.456;9.752;2022-07-23T04:42:06;6.68;;;1.80;;
22441;SDS011;11388;54.456;9.752;2022-07-23T04:44:32;4.82;;;1.20;;
22441;SDS011;11388;54.456;9.752;2022-07-23T04:46:58;6.30;;;1.60;;
22441;SDS011;11388;54.456;9.752;2022-07-23T04:49:23;6.50;;;1.40;;
22441;SDS011;11388;54.456;9.752;2022-07-23T04:51:49;3.60;;;1.20;;
22441;SDS011;11388;54.456;9.752;2022-07-23T04:54:15;5.15;;;1.20;;
22441;SDS011;11388;54.456;9.752;2022-07-23T04:56:42;5.22;;;1.30;;
22441;SDS011;11388;54.456;9.752;2022-07-23T04:59:08;8.65;;;1.55;;
22441;SDS011;11388;54.456;9.752;2022-07-23T05:01:34;5.88;;;1.40;;
22441;SDS011;11388;54.456;9.752;2022-07-23T05:03:59;7.43;;;1.30;;
22441;SDS011;11388;54.456;9.752;2022-07-23T05:06:25;6.20;;;1.50;;
22441;SDS011;11388;54.456;9.752;2022-07-23T05:08:51;4.55;;;1.27;;
22441;SDS011;11388;54.456;9.752;2022-07-23T05:11:16;9.30;;;1.42;;
22441;SDS011;11388;54.456;9.752;2022-07-23T05:13:42;5.10;;;1.05;;
22441;SDS011;11388;54.456;9.752;2022-07-23T05:16:08;6.15;;;1.27;;
22441;SDS011;11388;54.456;9.752;2022-07-23T05:18:33;5.53;;;1.40;;
22441;SDS011;11388;54.456;9.752;2022-07-23T05:20:59;5.25;;;1.40;;
22441;SDS011;11388;54.456;9.752;2022-07-23T05:23:25;6.93;;;1.33;;
22441;SDS011;11388;54.456;9.752;2022-07-23T05:25:50;6.00;;;1.60;;
22441;SDS011;11388;54.456;9.752;2022-07-23T05:28:16;6.90;;;1.17;;
22441;SDS011;11388;54.456;9.752;2022-07-23T05:30:42;3.42;;;1.10;;
22441;SDS011;11388;54.456;9.752;2022-07-23T05:33:08;5.80;;;1.30;;
22441;SDS011;11388;54.456;9.752;2022-07-23T05:35:33;6.20;;;1.20;;
22441;SDS011;11388;54.456;9.752;2022-07-23T05:37:59;3.92;;;1.17;;
22441;SDS011;11388;54.456;9.752;2022-07-23T05:40:25;5.60;;;1.15;;
22441;SDS011;11388;54.456;9.752;2022-07-23T05:42:50;5.00;;;1.20;;
22441;SDS011;11388;54.456;9.752;2022-07-23T05:45:16;4.10;;;1.40;;
22441;SDS011;11388;54.456;9.752;2022-07-23T05:47:45;6.03;;;1.27;;
22441;SDS011;11388;54.456;9.752;2022-07-23T05:50:12;3.88;;;1.00;;
22441;SDS011;11388;54.456;9.752;2022-07-23T05:52:39;4.85;;;1.23;;
22441;SDS011;11388;54.456;9.752;2022-07-23T05:55:05;4.65;;;1.10;;
22441;SDS011;11388;54.456;9.752;2022-07-23T05:57:31;5.05;;;1.40;;
22441;SDS011;11388;54.456;9.752;2022-07-23T05:59:57;5.45;;;1.33;;
22441;SDS011;11388;54.456;9.752;2022-07-23T06:02:23;2.97;;;1.05;;
22441;SDS011;11388;54.456;9.752;2022-07-23T06:04:48;5.63;;;1.38;;
22441;SDS011;11388;54.456;9.752;2022-07-23T06:07:14;5.28;;;1.10;;
22441;SDS011;11388;54.456;9.752;2022-07-23T06:09:41;4.38;;;1.00;;
22441;SDS011;11388;54.456;9.752;2022-07-23T06:12:07;5.88;;;1.33;;
22441;SDS011;11388;54.456;9.752;2022-07-23T06:14:33;6.40;;;1.40;;
22441;SDS011;11388;54.456;9.752;2022-07-23T06:16:58;5.65;;;1.30;;
22441;SDS011;11388;54.456;9.752;2022-07-23T06:19:24;4.50;;;1.13;;
22441;SDS011;11388;54.456;9.752;2022-07-23T06:21:50;3.63;;;1.08;;
22441;SDS011;11388;54.456;9.752;2022-07-23T06:24:16;4.97;;;1.10;;
22441;SDS011;11388;54.456;9.752;2022-07-23T06:26:42;6.20;;;1.20;;
22441;SDS011;11388;54.456;9.752;2022-07-23T06:29:07;5.25;;;1.15;;
22441;SDS011;11388;54.456;9.752;2022-07-23T06:31:33;5.30;;;1.30;;
22441;SDS011;11388;54.456;9.752;2022-07-23T06:33:59;3.83;;;0.98;;
22441;SDS011;11388;54.456;9.752;2022-07-23T06:36:25;4.22;;;1.00;;
22441;SDS011;11388;54.456;9.752;2022-07-23T06:38:51;5.07;;;1.30;;
22441;SDS011;11388;54.456;9.752;2022-07-23T06:41:16;4.20;;;1.20;;
22441;SDS011;11388;54.456;9.752;2022-07-23T06:43:42;6.32;;;1.30;;
22441;SDS011;11388;54.456;9.752;2022-07-23T06:46:08;4.70;;;1.10;;
22441;SDS011;11388;54.456;9.752;2022-07-23T06:48:33;3.55;;;1.00;;
22441;SDS011;11388;54.456;9.752;2022-07-23T06:51:01;3.90;;;1.00;;
22441;SDS011;11388;54.456;9.752;2022-07-23T06:53:27;5.43;;;1.00;;
22441;SDS011;11388;54.456;9.752;2022-07-23T06:55:53;6.20;;;1.23;;
22441;SDS011;11388;54.456;9.752;2022-07-23T06:58:19;4.90;;;1.10;;
22441;SDS011;11388;54.456;9.752;2022-07-23T07:00:45;5.40;;;1.17;;
22441;SDS011;11388;54.456;9.752;2022-07-23T07:03:11;5.85;;;1.10;;
22441;SDS011;11388;54.456;9.752;2022-07-23T07:05:37;4.25;;;1.08;;
22441;SDS011;11388;54.456;9.752;2022-07-23T07:08:04;4.85;;;1.10;;
22441;SDS011;11388;54.456;9.752;2022-07-23T07:10:30;5.28;;;1.25;;
22441;SDS011;11388;54.456;9.752;2022-07-23T07:12:56;4.93;;;1.23;;
22441;SDS011;11388;54.456;9.752;2022-07-23T07:15:22;4.32;;;1.00;;
22441;SDS011;11388;54.456;9.752;2022-07-23T07:17:47;4.82;;;1.20;;
22441;SDS011;11388;54.456;9.752;2022-07-23T07:20:13;5.80;;;1.13;;
22441;SDS011;11388;54.456;9.752;2022-07-23T07:25:31;5.20;;;1.00;;
22441;SDS011;11388;54.456;9.752;2022-07-23T07:27:57;5.35;;;1.15;;
22441;SDS011;11388;54.456;9.752;2022-07-23T07:30:22;3.35;;;1.25;;
22441;SDS011;11388;54.456;9.752;2022-07-23T07:32:48;5.03;;;1.10;;
22441;SDS011;11388;54.456;9.752;2022-07-23T07:35:14;4.15;;;0.90;;
22441;SDS011;11388;54.456;9.752;2022-07-23T07:37:40;4.85;;;1.20;;
22441;SDS011;11388;54.456;9.752;2022-07-23T07:40:05;6.07;;;1.30;;
22441;SDS011;11388;54.456;9.752;2022-07-23T07:42:32;3.47;;;0.82;;
22441;SDS011;11388;54.456;9.752;2022-07-23T07:44:58;5.40;;;1.08;;
22441;SDS011;11388;54.456;9.752;2022-07-23T07:47:23;4.45;;;0.90;;
22441;SDS011;11388;54.456;9.752;2022-07-23T07:49:49;4.38;;;1.13;;
22441;SDS011;11388;54.456;9.752;2022-07-23T07:52:15;5.43;;;1.00;;
22441;SDS011;11388;54.456;9.752;2022-07-23T07:54:40;4.45;;;1.13;;
22441;SDS011;11388;54.456;9.752;2022-07-23T07:57:07;3.35;;;0.90;;
22441;SDS011;11388;54.456;9.752;2022-07-23T07:59:33;4.63;;;1.00;;
22441;SDS011;11388;54.456;9.752;2022-07-23T08:01:59;3.45;;;0.77;;
22441;SDS011;11388;54.456;9.752;2022-07-23T08:04:25;5.13;;;1.10;;
22441;SDS011;11388;54.456;9.752;2022-07-23T08:06:50;5.38;;;1.20;;
22441;SDS011;11388;54.456;9.752;2022-07-23T08:09:16;4.53;;;1.15;;
22441;SDS011;11388;54.456;9.752;2022-07-23T08:11:42;5.43;;;1.15;;
22441;SDS011;11388;54.456;9.752;2022-07-23T08:14:07;5.10;;;0.90;;
22441;SDS011;11388;54.456;9.752;2022-07-23T08:16:34;5.38;;;1.00;;
22441;SDS011;11388;54.456;9.752;2022-07-23T08:19:00;5.00;;;1.00;;
22441;SDS011;11388;54.456;9.752;2022-07-23T08:24:34;4.53;;;0.95;;
22441;SDS011;11388;54.456;9.752;2022-07-23T08:26:59;3.83;;;1.02;;
22441;SDS011;11388;54.456;9.752;2022-07-23T08:29:25;2.88;;;0.95;;
22441;SDS011;11388;54.456;9.752;2022-07-23T08:31:51;4.60;;;1.00;;
22441;SDS011;11388;54.456;9.752;2022-07-23T08:34:16;3.17;;;1.00;;
22441;SDS011;11388;54.456;9.752;2022-07-23T08:36:42;3.70;;;1.00;;
22441;SDS011;11388;54.456;9.752;2022-07-23T08:39:07;4.35;;;0.88;;
22441;SDS011;11388;54.456;9.752;2022-07-23T08:41:47;3.42;;;0.90;;
22441;SDS011;11388;54.456;9.752;2022-07-23T08:44:13;4.00;;;1.00;;
22441;SDS011;11388;54.456;9.752;2022-07-23T08:46:41;2.97;;;0.70;;
22441;SDS011;11388;54.456;9.752;2022-07-23T08:49:08;3.55;;;0.85;;
22441;SDS011;11388;54.456;9.752;2022-07-23T08:51:35;4.22;;;0.95;;
22441;SDS011;11388;54.456;9.752;2022-07-23T08:54:00;2.95;;;0.85;;
22441;SDS011;11388;54.456;9.752;2022-07-23T08:56:26;3.88;;;1.05;;
22441;SDS011;11388;54.456;9.752;2022-07-23T08:58:55;2.85;;;1.10;;
22441;SDS011;11388;54.456;9.752;2022-07-23T09:01:22;5.10;;;1.30;;
22441;SDS011;11388;54.456;9.752;2022-07-23T09:03:48;3.58;;;1.20;;
22441;SDS011;11388;54.456;9.752;2022-07-23T09:06:14;4.45;;;0.98;;
22441;SDS011;11388;54.456;9.752;2022-07-23T09:08:40;2.47;;;0.93;;
22441;SDS011;11388;54.456;9.752;2022-07-23T09:11:08;4.25;;;0.90;;
22441;SDS011;11388;54.456;9.752;2022-07-23T09:13:48;4.20;;;1.10;;
22441;SDS011;11388;54.456;9.752;2022-07-23T09:16:25;3.58;;;1.00;;
22441;SDS011;11388;54.456;9.752;2022-07-23T09:18:57;5.70;;;1.20;;
22441;SDS011;11388;54.456;9.752;2022-07-23T09:21:24;4.85;;;1.20;;
22441;SDS011;11388;54.456;9.752;2022-07-23T09:23:51;4.05;;;1.17;;
22441;SDS011;11388;54.456;9.752;2022-07-23T09:29:02;3.83;;;1.13;;
22441;SDS011;11388;54.456;9.752;2022-07-23T09:34:33;5.75;;;1.15;;
22441;SDS011;11388;54.456;9.752;2022-07-23T09:37:13;4.72;;;1.40;;
22441;SDS011;11388;54.456;9.752;2022-07-23T09:39:43;4.20;;;0.80;;
22441;SDS011;11388;54.456;9.752;2022-07-23T09:44:48;6.13;;;1.10;;
22441;SDS011;11388;54.456;9.752;2022-07-23T09:47:15;4.60;;;1.00;;
22441;SDS011;11388;54.456;9.752;2022-07-23T09:52:30;4.07;;;1.02;;
22441;SDS011;11388;54.456;9.752;2022-07-23T09:55:02;3.70;;;0.90;;
22441;SDS011;11388;54.456;9.752;2022-07-23T09:57:30;4.68;;;1.23;;
22441;SDS011;11388;54.456;9.752;2022-07-23T09:59:58;5.95;;;0.90;;
22441;SDS011;11388;54.456;9.752;2022-07-23T10:02:27;4.47;;;0.82;;
22441;SDS011;11388;54.456;9.752;2022-07-23T10:04:54;3.90;;;1.00;;
22441;SDS011;11388;54.456;9.752;2022-07-23T10:07:23;4.47;;;0.90;;
22441;SDS011;11388;54.456;9.752;2022-07-23T10:09:52;4.63;;;0.93;;
22441;SDS011;11388;54.456;9.752;2022-07-23T10:12:19;5.70;;;0.95;;
22441;SDS011;11388;54.456;9.752;2022-07-23T10:14:48;5.20;;;0.90;;
22441;SDS011;11388;54.456;9.752;2022-07-23T10:17:15;7.43;;;1.17;;
22441;SDS011;11388;54.456;9.752;2022-07-23T10:19:41;6.38;;;1.00;;
22441;SDS011;11388;54.456;9.752;2022-07-23T10:28:06;5.10;;;1.13;;
22441;SDS011;11388;54.456;9.752;2022-07-23T10:31:04;3.92;;;1.25;;
22441;SDS011;11388;54.456;9.752;2022-07-23T10:39:13;5.97;;;1.70;;
22441;SDS011;11388;54.456;9.752;2022-07-23T10:41:53;6.22;;;1.65;;
22441;SDS011;11388;54.456;9.752;2022-07-23T10:44:44;5.60;;;1.50;;
22441;SDS011;11388;54.456;9.752;2022-07-23T10:47:12;5.70;;;1.35;;
22441;SDS011;11388;54.456;9.752;2022-07-23T10:58:02;5.45;;;1.25;;
22441;SDS011;11388;54.456;9.752;2022-07-23T11:00:30;4.70;;;1.33;;
22441;SDS011;11388;54.456;9.752;2022-07-23T11:06:19;4.95;;;1.23;;
22441;SDS011;11388;54.456;9.752;2022-07-23T11:08:45;4.35;;;1.17;;
22441;SDS011;11388;54.456;9.752;2022-07-23T11:11:11;4.70;;;1.20;;
22441;SDS011;11388;54.456;9.752;2022-07-23T11:16:05;5.93;;;1.40;;
22441;SDS011;11388;54.456;9.752;2022-07-23T11:19:13;7.13;;;1.40;;
22441;SDS011;11388;54.456;9.752;2022-07-23T11:32:01;6.43;;;0.80;;
22441;SDS011;11388;54.456;9.752;2022-07-23T11:37:04;3.42;;;0.77;;
22441;SDS011;11388;54.456;9.752;2022-07-23T11:39:31;2.58;;;0.90;;
22441;SDS011;11388;54.456;9.752;2022-07-23T11:41:58;3.05;;;0.73;;
22441;SDS011;11388;54.456;9.752;2022-07-23T11:44:25;3.38;;;0.85;;
22441;SDS011;11388;54.456;9.752;2022-07-23T11:47:26;3.15;;;0.70;;
22441;SDS011;11388;54.456;9.752;2022-07-23T11:49:57;6.30;;;1.00;;
22441;SDS011;11388;54.456;9.752;2022-07-23T11:52:25;4.25;;;1.10;;
22441;SDS011;11388;54.456;9.752;2022-07-23T11:54:55;3.10;;;0.80;;
22441;SDS011;11388;54.456;9.752;2022-07-23T11:57:27;3.53;;;0.80;;
22441;SDS011;11388;54.456;9.752;2022-07-23T12:00:01;3.20;;;0.80;;
22441;SDS011;11388;54.456;9.752;2022-07-23T12:02:30;5.10;;;1.00;;
22441;SDS011;11388;54.456;9.752;2022-07-23T12:04:56;5.28;;;0.90;;
22441;SDS011;11388;54.456;9.752;2022-07-23T12:09:59;2.88;;;0.90;;
22441;SDS011;11388;54.456;9.752;2022-07-23T12:12:34;5.22;;;1.20;;
22441;SDS011;11388;54.456;9.752;2022-07-23T12:15:02;5.05;;;0.98;;
22441;SDS011;11388;54.456;9.752;2022-07-23T12:17:53;4.80;;;1.30;;
22441;SDS011;11388;54.456;9.752;2022-07-23T12:20:24;5.68;;;1.08;;
22441;SDS011;11388;54.456;9.752;2022-07-23T12:22:52;4.57;;;1.30;;
22441;SDS011;11388;54.456;9.752;2022-07-23T12:25:30;4.28;;;0.98;;
22441;SDS011;11388;54.456;9.752;2022-07-23T12:27:59;4.97;;;1.15;;
22441;SDS011;11388;54.456;9.752;2022-07-23T12:30:40;4.25;;;1.00;;
22441;SDS011;11388;54.456;9.752;2022-07-23T12:33:07;5.95;;;1.02;;
22441;SDS011;11388;54.456;9.752;2022-07-23T12:35:39;4.47;;;1.00;;
22441;SDS011;11388;54.456;9.752;2022-07-23T12:38:08;5.80;;;1.00;;
22441;SDS011;11388;54.456;9.752;2022-07-23T12:40:41;4.65;;;1.00;;
22441;SDS011;11388;54.456;9.752;2022-07-23T12:45:54;6.07;;;0.95;;
22441;SDS011;11388;54.456;9.752;2022-07-23T12:48:37;3.67;;;0.90;;
22441;SDS011;11388;54.456;9.752;2022-07-23T12:51:14;4.43;;;1.10;;
22441;SDS011;11388;54.456;9.752;2022-07-23T12:53:41;2.42;;;0.65;;
22441;SDS011;11388;54.456;9.752;2022-07-23T12:56:15;1.75;;;0.70;;
22441;SDS011;11388;54.456;9.752;2022-07-23T12:58:47;3.40;;;0.60;;
22441;SDS011;11388;54.456;9.752;2022-07-23T13:04:08;4.30;;;0.60;;
22441;SDS011;11388;54.456;9.752;2022-07-23T13:06:55;3.10;;;0.70;;
22441;SDS011;11388;54.456;9.752;2022-07-23T13:09:28;3.17;;;0.60;;
22441;SDS011;11388;54.456;9.752;2022-07-23T13:11:56;2.90;;;0.60;;
22441;SDS011;11388;54.456;9.752;2022-07-23T13:14:22;2.20;;;0.35;;
22441;SDS011;11388;54.456;9.752;2022-07-23T13:16:50;2.60;;;0.60;;
22441;SDS011;11388;54.456;9.752;2022-07-23T13:19:17;1.13;;;0.40;;
22441;SDS011;11388;54.456;9.752;2022-07-23T13:21:44;2.05;;;0.50;;
22441;SDS011;11388;54.456;9.752;2022-07-23T13:24:18;2.20;;;0.60;;
22441;SDS011;11388;54.456;9.752;2022-07-23T13:26:48;2.63;;;0.52;;
22441;SDS011;11388;54.456;9.752;2022-07-23T13:29:20;4.05;;;0.70;;
22441;SDS011;11388;54.456;9.752;2022-07-23T13:31:48;2.90;;;0.77;;
22441;SDS011;11388;54.456;9.752;2022-07-23T13:34:14;2.70;;;0.65;;
22441;SDS011;11388;54.456;9.752;2022-07-23T13:36:40;3.40;;;0.70;;
22441;SDS011;11388;54.456;9.752;2022-07-23T13:39:06;5.32;;;0.70;;
22441;SDS011;11388;54.456;9.752;2022-07-23T13:41:49;2.92;;;0.68;;
22441;SDS011;11388;54.456;9.752;2022-07-23T13:44:17;3.05;;;0.60;;
22441;SDS011;11388;54.456;9.752;2022-07-23T13:46:55;2.75;;;0.50;;
22441;SDS011;11388;54.456;9.752;2022-07-23T13:49:24;3.10;;;0.73;;
22441;SDS011;11388;54.456;9.752;2022-07-23T13:58:27;2.03;;;0.55;;
22441;SDS011;11388;54.456;9.752;2022-07-23T14:00:53;3.70;;;0.60;;
22441;SDS011;11388;54.456;9.752;2022-07-23T14:03:20;3.85;;;0.60;;
22441;SDS011;11388;54.456;9.752;2022-07-23T14:05:50;1.58;;;0.50;;
22441;SDS011;11388;54.456;9.752;2022-07-23T14:08:17;4.65;;;0.95;;
22441;SDS011;11388;54.456;9.752;2022-07-23T14:10:43;4.82;;;0.88;;
22441;SDS011;11388;54.456;9.752;2022-07-23T14:13:15;3.10;;;0.60;;
22441;SDS011;11388;54.456;9.752;2022-07-23T14:16:11;3.25;;;0.90;;
22441;SDS011;11388;54.456;9.752;2022-07-23T14:18:58;2.60;;;0.70;;
22441;SDS011;11388;54.456;9.752;2022-07-23T14:21:28;2.92;;;0.70;;
22441;SDS011;11388;54.456;9.752;2022-07-23T14:23:59;3.60;;;0.70;;
22441;SDS011;11388;54.456;9.752;2022-07-23T14:26:25;4.55;;;0.98;;
22441;SDS011;11388;54.456;9.752;2022-07-23T14:28:55;4.68;;;0.90;;
22441;SDS011;11388;54.456;9.752;2022-07-23T14:31:24;3.60;;;0.80;;
22441;SDS011;11388;54.456;9.752;2022-07-23T14:37:21;3.65;;;0.90;;
22441;SDS011;11388;54.456;9.752;2022-07-23T14:39:50;2.78;;;0.60;;
22441;SDS011;11388;54.456;9.752;2022-07-23T14:44:56;3.47;;;0.60;;
22441;SDS011;11388;54.456;9.752;2022-07-23T14:47:25;4.43;;;0.73;;
22441;SDS011;11388;54.456;9.752;2022-07-23T14:49:56;3.63;;;0.75;;
22441;SDS011;11388;54.456;9.752;2022-07-23T14:52:22;2.42;;;0.60;;
22441;SDS011;11388;54.456;9.752;2022-07-23T14:54:48;2.45;;;0.50;;
22441;SDS011;11388;54.456;9.752;2022-07-23T14:57:13;3.42;;;0.70;;
22441;SDS011;11388;54.456;9.752;2022-07-23T14:59:39;3.97;;;0.63;;
22441;SDS011;11388;54.456;9.752;2022-07-23T15:02:07;3.72;;;0.90;;
22441;SDS011;11388;54.456;9.752;2022-07-23T15:04:33;3.15;;;0.80;;
22441;SDS011;11388;54.456;9.752;2022-07-23T15:06:58;2.70;;;0.70;;
22441;SDS011;11388;54.456;9.752;2022-07-23T15:09:24;4.82;;;0.90;;
22441;SDS011;11388;54.456;9.752;2022-07-23T15:11:50;2.90;;;0.63;;
22441;SDS011;11388;54.456;9.752;2022-07-23T15:17:12;7.05;;;1.10;;
22441;SDS011;11388;54.456;9.752;2022-07-23T15:19:58;5.40;;;1.05;;
22441;SDS011;11388;54.456;9.752;2022-07-23T15:22:38;3.60;;;0.98;;
22441;SDS011;11388;54.456;9.752;2022-07-23T15:25:10;1.77;;;0.50;;
22441;SDS011;11388;54.456;9.752;2022-07-23T15:27:36;3.38;;;0.60;;
22441;SDS011;11388;54.456;9.752;2022-07-23T15:30:03;3.10;;;0.70;;
22441;SDS011;11388;54.456;9.752;2022-07-23T15:32:29;3.40;;;0.70;;
22441;SDS011;11388;54.456;9.752;2022-07-23T15:34:55;3.10;;;0.80;;
22441;SDS011;11388;54.456;9.752;2022-07-23T15:37:21;1.95;;;0.60;;
22441;SDS011;11388;54.456;9.752;2022-07-23T15:39:48;6.18;;;0.80;;
22441;SDS011;11388;54.456;9.752;2022-07-23T15:42:23;2.95;;;0.82;;
22441;SDS011;11388;54.456;9.752;2022-07-23T15:44:55;3.78;;;0.85;;
22441;SDS011;11388;54.456;9.752;2022-07-23T15:47:20;2.30;;;0.60;;
22441;SDS011;11388;54.456;9.752;2022-07-23T15:49:47;3.90;;;0.90;;
22441;SDS011;11388;54.456;9.752;2022-07-23T15:52:13;2.97;;;0.80;;
22441;SDS011;11388;54.456;9.752;2022-07-23T15:54:39;4.43;;;0.90;;
22441;SDS011;11388;54.456;9.752;2022-07-23T15:57:05;3.05;;;0.80;;
22441;SDS011;11388;54.456;9.752;2022-07-23T15:59:31;3.38;;;0.80;;
22441;SDS011;11388;54.456;9.752;2022-07-23T16:04:28;5.20;;;0.57;;
22441;SDS011;11388;54.456;9.752;2022-07-23T16:06:55;3.45;;;0.80;;
22441;SDS011;11388;54.456;9.752;2022-07-23T16:09:21;6.45;;;0.77;;
22441;SDS011;11388;54.456;9.752;2022-07-23T16:11:47;4.40;;;0.90;;
22441;SDS011;11388;54.456;9.752;2022-07-23T16:14:13;3.40;;;0.68;;
22441;SDS011;11388;54.456;9.752;2022-07-23T16:16:40;4.63;;;0.88;;
22441;SDS011;11388;54.456;9.752;2022-07-23T16:19:06;4.97;;;0.93;;